Wilson Gdynia — 8PSA — position and weather

sailwx.info

Track history (hours):
 
Tides and Currents Weather Stations Pressure Air Temp Water Temp Dewpoint Dewpoint Depression Visibility Wind Speed Wind Dir Waves Ship Positions

Wilson Gdynia

Last reported at 2017-Jan-19 09:11 UTC. Time now 2017-Jan-21 17:34 UTC.
Position N 70°07' E 018°03'.

Length 88 m; draft 4.4 m.

Type: Cargo ship. MMSI: 314192000.

Date/timePositionNaut miles runAvg speedWind from/ knotsBaromVisibWave heightAir tempDewpointWater temp
2017-Jan-19 09:11N 70°07' E 018°03'5 8.4
2017-Jan-19 08:33N 70°04' E 017°51'238 8.5
2017-Jan-18 04:32N 66°48' E 011°44'8 8.6
2017-Jan-18 03:34N 66°40' E 011°47'8 8.4
2017-Jan-18 02:34N 66°31' E 011°50'7 7.1
2017-Jan-18 01:34N 66°24' E 011°55'7 7.1
2017-Jan-18 00:33N 66°20' E 012°07'7 7.4
2017-Jan-17 23:33N 66°16' E 012°23'9 9.2
2017-Jan-17 22:33N 66°18' E 012°45'6 0.4
2017-Jan-17 07:33N 66°21' E 012°60'4 4.1
2017-Jan-17 06:33N 66°20' E 012°50'8 8.3
2017-Jan-17 05:33N 66°15' E 012°32'5 4.7
2017-Jan-17 04:33N 66°16' E 012°20'5 4.8
2017-Jan-17 03:33N 66°17' E 012°09'5 4.9
2017-Jan-17 02:33N 66°16' E 011°57'5 4.5
2017-Jan-17 01:33N 66°15' E 011°46'5 4.8
2017-Jan-17 00:31N 66°12' E 011°35'185 7.1
2017-Jan-15 22:24N 63°36' E 007°43'7 7.9
2017-Jan-15 21:33N 63°30' E 007°37'8 7.9
2017-Jan-15 20:33N 63°22' E 007°37'8 8.3
2017-Jan-15 19:33N 63°14' E 007°42'7 6.9
2017-Jan-15 18:33N 63°07' E 007°46'0 0.0
2017-Jan-15 17:32N 63°07' E 007°46'0 0.0
2017-Jan-15 16:32N 63°07' E 007°46'0 0.0
2017-Jan-15 15:33N 63°07' E 007°46'0 0.0
2017-Jan-15 14:32N 63°07' E 007°46'0 0.0
2017-Jan-15 13:33N 63°07' E 007°46'0 0.0
2017-Jan-15 12:32N 63°07' E 007°46'0 0.0
2017-Jan-15 11:32N 63°07' E 007°46'0 0.0
2017-Jan-15 10:32N 63°07' E 007°46'0 0.0
2017-Jan-15 09:33N 63°07' E 007°46'0 0.0
2017-Jan-15 08:32N 63°07' E 007°46'0 0.0
2017-Jan-15 07:32N 63°07' E 007°46'0 0.0
2017-Jan-15 06:30N 63°07' E 007°46'0 0.0
2017-Jan-15 05:33N 63°07' E 007°46'0 0.0
2017-Jan-15 04:32N 63°07' E 007°46'0 0.0
2017-Jan-15 03:32N 63°07' E 007°46'0 0.0
2017-Jan-15 02:33N 63°07' E 007°46'0 0.0
2017-Jan-15 01:32N 63°07' E 007°46'0 0.0
2017-Jan-15 00:32N 63°07' E 007°46'1 1.4
2017-Jan-14 23:33N 63°09' E 007°46'9 8.8
2017-Jan-14 22:34N 63°05' E 007°28'9 8.7
2017-Jan-14 21:33N 63°03' E 007°10'13 6.2
2017-Jan-14 19:33N 62°52' E 006°56'21 0.4
2017-Jan-12 17:20N 62°37' E 006°26'  
Track history (hours):
 
Tides and Currents Weather Stations Pressure Air Temp Water Temp Dewpoint Dewpoint Depression Visibility Wind Speed Wind Dir Waves Ship Positions

Wilson Gdynia

Last reported at 2017-Jan-19 09:11 UTC. Time now 2017-Jan-21 17:34 UTC.
Position N 70°07' E 018°03'.

Length 88 m; draft 4.4 m.

Type: Cargo ship. MMSI: 314192000.

Date/timePositionNaut miles runAvg speedWind from/ knotsBaromVisibWave heightAir tempDewpointWater temp
2017-Jan-19 09:11N 70°07' E 018°03'5 8.4
2017-Jan-19 08:33N 70°04' E 017°51'238 8.5
2017-Jan-18 04:32N 66°48' E 011°44'8 8.6
2017-Jan-18 03:34N 66°40' E 011°47'8 8.4
2017-Jan-18 02:34N 66°31' E 011°50'7 7.1
2017-Jan-18 01:34N 66°24' E 011°55'7 7.1
2017-Jan-18 00:33N 66°20' E 012°07'7 7.4
2017-Jan-17 23:33N 66°16' E 012°23'9 9.2
2017-Jan-17 22:33N 66°18' E 012°45'6 0.4
2017-Jan-17 07:33N 66°21' E 012°60'4 4.1
2017-Jan-17 06:33N 66°20' E 012°50'8 8.3
2017-Jan-17 05:33N 66°15' E 012°32'5 4.7
2017-Jan-17 04:33N 66°16' E 012°20'5 4.8
2017-Jan-17 03:33N 66°17' E 012°09'5 4.9
2017-Jan-17 02:33N 66°16' E 011°57'5 4.5
2017-Jan-17 01:33N 66°15' E 011°46'5 4.8
2017-Jan-17 00:31N 66°12' E 011°35'185 7.1
2017-Jan-15 22:24N 63°36' E 007°43'7 7.9
2017-Jan-15 21:33N 63°30' E 007°37'8 7.9
2017-Jan-15 20:33N 63°22' E 007°37'8 8.3
2017-Jan-15 19:33N 63°14' E 007°42'7 6.9
2017-Jan-15 18:33N 63°07' E 007°46'0 0.0
2017-Jan-15 17:32N 63°07' E 007°46'0 0.0
2017-Jan-15 16:32N 63°07' E 007°46'0 0.0
2017-Jan-15 15:33N 63°07' E 007°46'0 0.0
2017-Jan-15 14:32N 63°07' E 007°46'0 0.0
2017-Jan-15 13:33N 63°07' E 007°46'0 0.0
2017-Jan-15 12:32N 63°07' E 007°46'0 0.0
2017-Jan-15 11:32N 63°07' E 007°46'0 0.0
2017-Jan-15 10:32N 63°07' E 007°46'0 0.0
2017-Jan-15 09:33N 63°07' E 007°46'0 0.0
2017-Jan-15 08:32N 63°07' E 007°46'0 0.0
2017-Jan-15 07:32N 63°07' E 007°46'0 0.0
2017-Jan-15 06:30N 63°07' E 007°46'0 0.0
2017-Jan-15 05:33N 63°07' E 007°46'0 0.0
2017-Jan-15 04:32N 63°07' E 007°46'0 0.0
2017-Jan-15 03:32N 63°07' E 007°46'0 0.0
2017-Jan-15 02:33N 63°07' E 007°46'0 0.0
2017-Jan-15 01:32N 63°07' E 007°46'0 0.0
2017-Jan-15 00:32N 63°07' E 007°46'1 1.4
2017-Jan-14 23:33N 63°09' E 007°46'9 8.8
2017-Jan-14 22:34N 63°05' E 007°28'9 8.7
2017-Jan-14 21:33N 63°03' E 007°10'13 6.2
2017-Jan-14 19:33N 62°52' E 006°56'21 0.4
2017-Jan-12 17:20N 62°37' E 006°26'  

Dump ship's entire track history